Time;durP1;ratioP1;P1;durP2;ratioP2;P2;SDS_P1;SDS_P2;PMS_P1;PMS_P2;Temp;Humidity;BMP_temperature;BMP_pressure;BME280_temperature;BME280_humidity;BME280_pressure;Samples;Min_cycle;Max_cycle;Signal;HPM_P1;HPM_P2
2022/05/26 00:01:54;;;;;;;15.18;1.77;;;;;;;;;;5132341;27;20122;-59
2022/05/26 00:04:21;;;;;;;10.77;1.10;;;;;;;;;;5132542;27;20377;-60
2022/05/26 00:06:47;;;;;;;10.23;1.02;;;;;;;;;;5131616;27;20050;-59
2022/05/26 00:09:14;;;;;;;5.00;0.63;;;;;;;;;;5131560;27;20035;-60
2022/05/26 00:11:40;;;;;;;11.23;1.08;;;;;;;;;;5131217;27;20070;-60
2022/05/26 00:14:08;;;;;;;22.83;2.20;;;;;;;;;;5131139;27;20533;-60
2022/05/26 00:16:41;;;;;;;5.68;0.57;;;;;;;;;;5132926;27;20039;-60
2022/05/26 00:19:08;;;;;;;21.25;2.13;;;;;;;;;;5131035;27;20072;-59
2022/05/26 00:21:34;;;;;;;3.33;0.50;;;;;;;;;;5130822;27;20114;-60
2022/05/26 00:24:01;;;;;;;6.75;0.98;;;;;;;;;;5131275;27;20411;-59
2022/05/26 00:26:28;;;;;;;20.25;2.25;;;;;;;;;;5130661;27;20053;-59
2022/05/26 00:28:54;;;;;;;10.90;1.10;;;;;;;;;;5131245;27;20060;-59
2022/05/26 00:31:21;;;;;;;5.55;1.02;;;;;;;;;;5131788;28;20045;-60
2022/05/26 00:33:48;;;;;;;11.48;1.13;;;;;;;;;;5131894;27;20351;-60
2022/05/26 00:36:15;;;;;;;2.90;0.32;;;;;;;;;;5131953;27;20039;-59
2022/05/26 00:38:42;;;;;;;0.10;0.10;;;;;;;;;;5131898;27;20122;-59
2022/05/26 00:41:10;;;;;;;16.20;1.60;;;;;;;;;;5131300;27;20115;-60
2022/05/26 00:43:41;;;;;;;5.82;0.68;;;;;;;;;;5132653;28;20049;-60
2022/05/26 00:46:33;;;;;;;4.18;0.43;;;;;;;;;;5131720;27;20043;-59
2022/05/26 00:49:01;;;;;;;5.22;0.63;;;;;;;;;;5035308;28;20100;-59
2022/05/26 00:51:29;;;;;;;6.50;0.70;;;;;;;;;;5032162;28;20130;-60
2022/05/26 00:53:58;;;;;;;14.38;1.38;;;;;;;;;;5031370;28;20099;-59
2022/05/26 00:56:28;;;;;;;15.02;1.45;;;;;;;;;;5031644;28;20115;-59
2022/05/26 00:58:57;;;;;;;12.50;1.20;;;;;;;;;;5027912;28;20538;-59
2022/05/26 01:01:24;;;;;;;7.50;1.27;;;;;;;;;;5031908;28;20104;-59
2022/05/26 01:04:00;;;;;;;11.43;1.45;;;;;;;;;;5034177;28;20050;-59
2022/05/26 01:06:46;;;;;;;13.98;1.50;;;;;;;;;;5038217;28;20044;-59
2022/05/26 01:09:13;;;;;;;8.95;0.90;;;;;;;;;;5032071;28;20084;-59
2022/05/26 01:11:40;;;;;;;8.77;0.88;;;;;;;;;;5031652;28;20041;-59
2022/05/26 01:14:10;;;;;;;16.55;1.60;;;;;;;;;;5028988;28;20096;-59
2022/05/26 01:16:46;;;;;;;5.82;0.63;;;;;;;;;;5030124;28;20521;-59
2022/05/26 01:19:31;;;;;;;12.07;1.17;;;;;;;;;;5037820;28;20156;-59
2022/05/26 01:22:00;;;;;;;5.95;0.63;;;;;;;;;;5034687;28;20128;-60
2022/05/26 01:24:50;;;;;;;19.83;1.85;;;;;;;;;;5031334;28;20531;-59
2022/05/26 01:27:27;;;;;;;7.60;0.73;;;;;;;;;;5121410;28;20035;-60
2022/05/26 01:30:02;;;;;;;3.30;0.38;;;;;;;;;;5133878;27;20464;-59
2022/05/26 01:32:47;;;;;;;6.78;0.68;;;;;;;;;;5135188;27;20050;-60
2022/05/26 01:35:25;;;;;;;8.73;0.88;;;;;;;;;;5134674;27;20043;-59
2022/05/26 01:38:04;;;;;;;14.02;1.35;;;;;;;;;;5134849;27;20560;-59
2022/05/26 01:40:40;;;;;;;15.80;1.50;;;;;;;;;;5134707;27;20051;-59
2022/05/26 01:43:25;;;;;;;7.57;0.77;;;;;;;;;;5131615;27;20036;-60
2022/05/26 01:45:58;;;;;;;0.85;0.28;;;;;;;;;;5134739;27;20122;-60
2022/05/26 01:48:28;;;;;;;8.90;0.85;;;;;;;;;;5134489;27;20038;-60
2022/05/26 01:50:57;;;;;;;9.00;0.88;;;;;;;;;;5134458;27;20047;-60
2022/05/26 01:53:30;;;;;;;19.27;1.77;;;;;;;;;;5133965;27;20045;-59
2022/05/26 01:56:12;;;;;;;21.88;2.42;;;;;;;;;;5133852;27;20126;-60
2022/05/26 01:58:41;;;;;;;4.78;0.52;;;;;;;;;;5134654;27;20686;-60
2022/05/26 02:01:11;;;;;;;12.13;1.20;;;;;;;;;;5134436;27;20451;-60
2022/05/26 02:03:40;;;;;;;2.05;0.28;;;;;;;;;;5134841;27;20454;-60
2022/05/26 02:06:10;;;;;;;13.30;2.10;;;;;;;;;;5133788;27;20035;-59
2022/05/26 02:08:38;;;;;;;17.50;1.63;;;;;;;;;;5133755;27;20035;-60
2022/05/26 02:11:10;;;;;;;14.50;1.40;;;;;;;;;;5133006;27;20114;-60
2022/05/26 02:13:47;;;;;;;19.48;1.92;;;;;;;;;;5134094;27;20413;-60
2022/05/26 02:16:38;;;;;;;3.00;0.32;;;;;;;;;;5134208;27;20042;-60
2022/05/26 02:19:11;;;;;;;18.23;1.70;;;;;;;;;;5133784;27;20045;-60
2022/05/26 02:21:41;;;;;;;6.07;0.63;;;;;;;;;;5131858;27;20043;-60
2022/05/26 02:24:10;;;;;;;15.57;1.50;;;;;;;;;;5133075;27;20035;-59
2022/05/26 02:26:37;;;;;;;6.75;0.70;;;;;;;;;;5132897;27;20122;-59
2022/05/26 02:31:51;;;;;;;0.73;0.10;;;;;;;;;;5135423;27;20049;-59
2022/05/26 02:34:18;;;;;;;7.00;0.70;;;;;;;;;;5133670;27;20067;-59
2022/05/26 02:36:45;;;;;;;7.45;0.75;;;;;;;;;;5133099;27;20047;-59
2022/05/26 02:39:12;;;;;;;26.45;2.47;;;;;;;;;;5132673;27;20126;-59
2022/05/26 02:41:39;;;;;;;13.30;1.33;;;;;;;;;;5131768;27;20047;-59
2022/05/26 02:44:06;;;;;;;14.07;1.30;;;;;;;;;;5133386;27;20051;-59
2022/05/26 02:46:42;;;;;;;8.13;0.80;;;;;;;;;;5134330;27;20092;-59
2022/05/26 02:49:27;;;;;;;2.55;0.98;;;;;;;;;;5133803;27;20039;-60
2022/05/26 02:51:53;;;;;;;4.47;0.50;;;;;;;;;;5132955;27;20043;-60
2022/05/26 02:54:33;;;;;;;11.55;1.13;;;;;;;;;;5132576;27;20134;-60
2022/05/26 02:57:14;;;;;;;21.52;1.98;;;;;;;;;;5130850;27;20027;-60
2022/05/26 03:00:03;;;;;;;4.85;0.93;;;;;;;;;;5132775;27;20043;-60
2022/05/26 03:02:35;;;;;;;7.28;0.75;;;;;;;;;;5133211;27;20501;-59
2022/05/26 03:05:19;;;;;;;14.48;1.38;;;;;;;;;;5133533;27;20074;-59
2022/05/26 03:07:48;;;;;;;4.10;0.43;;;;;;;;;;5132979;27;20114;-59
2022/05/26 03:10:15;;;;;;;14.23;1.40;;;;;;;;;;5132244;27;20047;-59
2022/05/26 03:12:43;;;;;;;19.17;1.75;;;;;;;;;;5131970;27;20523;-60
2022/05/26 03:15:13;;;;;;;15.98;2.72;;;;;;;;;;5132485;27;20441;-59
2022/05/26 03:17:40;;;;;;;16.42;1.58;;;;;;;;;;5133348;27;20135;-59
2022/05/26 03:20:07;;;;;;;20.20;1.92;;;;;;;;;;5132522;27;20070;-60
2022/05/26 03:22:33;;;;;;;27.00;2.53;;;;;;;;;;5132454;27;20043;-60
2022/05/26 03:25:00;;;;;;;4.60;0.50;;;;;;;;;;5130593;27;20085;-59
2022/05/26 03:27:26;;;;;;;14.57;1.45;;;;;;;;;;5132123;27;20035;-59
2022/05/26 03:29:54;;;;;;;4.57;0.52;;;;;;;;;;5131268;27;20039;-59
2022/05/26 03:32:20;;;;;;;10.45;1.02;;;;;;;;;;5132658;27;20035;-59
2022/05/26 03:43:02;;;;;;;15.65;1.52;;;;;;;;;;5131504;27;20077;-60
2022/05/26 03:45:30;;;;;;;3.67;0.40;;;;;;;;;;5132459;27;20035;-60
2022/05/26 03:47:56;;;;;;;9.93;0.95;;;;;;;;;;5132682;27;20043;-60
2022/05/26 03:50:23;;;;;;;17.67;2.17;;;;;;;;;;5132484;27;20552;-60
2022/05/26 03:52:51;;;;;;;3.80;0.40;;;;;;;;;;5131500;27;20501;-60
2022/05/26 03:55:18;;;;;;;6.13;0.65;;;;;;;;;;5131635;27;20094;-60
2022/05/26 03:57:45;;;;;;;14.05;1.33;;;;;;;;;;5131195;27;20408;-59
2022/05/26 04:00:12;;;;;;;6.50;0.68;;;;;;;;;;5132088;27;20391;-60
2022/05/26 04:02:39;;;;;;;5.13;0.60;;;;;;;;;;5132228;27;20385;-60
2022/05/26 04:05:06;;;;;;;19.50;1.95;;;;;;;;;;5130425;27;20039;-60
2022/05/26 04:07:32;;;;;;;8.90;0.90;;;;;;;;;;5131792;27;20039;-60
2022/05/26 04:09:59;;;;;;;7.13;0.75;;;;;;;;;;5130309;27;20035;-60
2022/05/26 04:12:25;;;;;;;8.82;0.88;;;;;;;;;;5130814;27;20685;-60
2022/05/26 04:14:52;;;;;;;5.07;0.90;;;;;;;;;;5131654;27;20038;-60
2022/05/26 04:17:18;;;;;;;9.20;0.98;;;;;;;;;;5132148;27;20108;-60
2022/05/26 04:19:45;;;;;;;11.40;1.25;;;;;;;;;;5132245;27;20038;-60
2022/05/26 04:22:18;;;;;;;11.30;1.88;;;;;;;;;;5131099;27;20112;-60
2022/05/26 04:24:46;;;;;;;7.00;0.82;;;;;;;;;;5131629;27;20047;-60
2022/05/26 04:27:13;;;;;;;15.15;1.65;;;;;;;;;;5130845;27;20105;-60
2022/05/26 04:29:40;;;;;;;10.68;1.13;;;;;;;;;;5131394;27;20046;-60
2022/05/26 04:32:06;;;;;;;18.67;2.05;;;;;;;;;;5120484;28;20535;-60
2022/05/26 04:34:33;;;;;;;20.23;2.15;;;;;;;;;;5125385;27;20067;-60
2022/05/26 04:37:00;;;;;;;22.98;2.42;;;;;;;;;;5124775;27;20505;-60
2022/05/26 04:39:26;;;;;;;2.47;0.40;;;;;;;;;;5131908;27;20081;-60
2022/05/26 04:41:57;;;;;;;21.38;2.40;;;;;;;;;;5124490;27;20059;-59
2022/05/26 04:44:24;;;;;;;23.92;3.22;;;;;;;;;;5131595;27;20039;-60
2022/05/26 04:46:50;;;;;;;10.48;1.20;;;;;;;;;;5132568;28;20062;-60
2022/05/26 04:49:17;;;;;;;11.90;1.35;;;;;;;;;;5131529;28;20031;-60
2022/05/26 04:51:43;;;;;;;4.60;0.68;;;;;;;;;;5130947;27;20115;-60
2022/05/26 04:54:10;;;;;;;18.70;1.98;;;;;;;;;;5130127;28;20078;-60
2022/05/26 04:56:37;;;;;;;11.18;1.33;;;;;;;;;;5130614;27;20045;-60
2022/05/26 04:59:05;;;;;;;9.57;1.13;;;;;;;;;;5132123;27;20134;-60
2022/05/26 05:01:31;;;;;;;5.80;0.77;;;;;;;;;;5132424;28;20135;-60
2022/05/26 05:04:00;;;;;;;15.70;1.77;;;;;;;;;;5132715;27;20508;-60
2022/05/26 05:06:27;;;;;;;15.02;1.67;;;;;;;;;;5135666;27;20035;-60
2022/05/26 05:08:53;;;;;;;8.75;1.05;;;;;;;;;;5134202;27;20039;-60
2022/05/26 05:11:20;;;;;;;21.88;2.58;;;;;;;;;;5133521;27;20086;-60
2022/05/26 05:13:46;;;;;;;16.23;1.90;;;;;;;;;;5134066;27;20432;-60
2022/05/26 05:16:19;;;;;;;15.23;1.85;;;;;;;;;;5133660;27;20063;-60
2022/05/26 05:18:46;;;;;;;19.80;2.33;;;;;;;;;;5132015;27;20496;-60
2022/05/26 05:21:14;;;;;;;7.55;1.10;;;;;;;;;;5124716;27;20110;-60
2022/05/26 05:23:43;;;;;;;8.57;1.20;;;;;;;;;;5135302;27;20092;-60
2022/05/26 05:26:12;;;;;;;16.52;1.90;;;;;;;;;;5133776;27;20152;-61
2022/05/26 05:28:41;;;;;;;12.10;1.45;;;;;;;;;;5136218;27;20146;-60
2022/05/26 05:31:09;;;;;;;3.88;0.68;;;;;;;;;;5135619;27;20479;-60
2022/05/26 05:33:39;;;;;;;6.97;0.93;;;;;;;;;;5134949;27;20099;-61
2022/05/26 05:36:06;;;;;;;16.00;2.13;;;;;;;;;;5135216;27;20032;-60
2022/05/26 05:38:38;;;;;;;10.85;2.22;;;;;;;;;;5135510;27;20047;-60
2022/05/26 05:41:08;;;;;;;12.63;1.55;;;;;;;;;;5134846;27;20043;-60
2022/05/26 05:43:35;;;;;;;4.68;0.77;;;;;;;;;;5135571;27;20043;-60
2022/05/26 05:46:02;;;;;;;10.23;1.40;;;;;;;;;;5134757;27;20561;-60
2022/05/26 05:48:28;;;;;;;11.10;1.40;;;;;;;;;;5134486;27;20485;-60
2022/05/26 05:50:55;;;;;;;6.25;0.88;;;;;;;;;;5134860;27;20566;-60
2022/05/26 05:53:21;;;;;;;12.80;1.50;;;;;;;;;;5134847;27;20047;-60
2022/05/26 05:55:48;;;;;;;30.98;4.32;;;;;;;;;;5134994;27;20050;-60
2022/05/26 05:58:14;;;;;;;5.82;1.77;;;;;;;;;;5134503;27;20039;-60
2022/05/26 06:00:42;;;;;;;31.75;3.38;;;;;;;;;;5134333;27;20075;-60
2022/05/26 06:03:09;;;;;;;8.60;1.10;;;;;;;;;;5134483;27;20117;-60
2022/05/26 06:05:36;;;;;;;6.35;0.93;;;;;;;;;;5134656;27;20450;-60
2022/05/26 06:08:04;;;;;;;19.92;2.28;;;;;;;;;;5134628;27;20039;-60
2022/05/26 06:10:30;;;;;;;4.05;0.68;;;;;;;;;;5134277;27;20515;-61
2022/05/26 06:12:57;;;;;;;22.80;2.88;;;;;;;;;;5134060;27;20516;-61
2022/05/26 06:15:24;;;;;;;11.90;1.58;;;;;;;;;;5132294;27;20031;-61
2022/05/26 06:17:51;;;;;;;7.30;1.05;;;;;;;;;;5134087;27;20043;-61
2022/05/26 06:20:17;;;;;;;8.93;1.23;;;;;;;;;;5134138;27;20043;-60
2022/05/26 06:22:45;;;;;;;21.15;2.47;;;;;;;;;;5134855;27;20111;-60
2022/05/26 06:25:12;;;;;;;5.85;0.90;;;;;;;;;;5134325;27;20066;-61
2022/05/26 06:30:26;;;;;;;8.32;1.17;;;;;;;;;;5134124;27;20069;-61
2022/05/26 06:38:25;;;;;;;9.52;1.25;;;;;;;;;;5134085;27;20536;-61
2022/05/26 06:40:52;;;;;;;21.38;2.55;;;;;;;;;;5134573;27;20122;-61
2022/05/26 06:43:19;;;;;;;22.95;3.05;;;;;;;;;;5133454;27;20435;-61
2022/05/26 06:45:46;;;;;;;9.75;1.35;;;;;;;;;;5132207;27;20039;-61
2022/05/26 06:48:14;;;;;;;10.73;1.42;;;;;;;;;;5133460;27;20057;-61
2022/05/26 06:50:40;;;;;;;10.27;1.45;;;;;;;;;;5133617;27;20142;-60
2022/05/26 06:53:07;;;;;;;16.30;3.25;;;;;;;;;;5133348;27;20051;-61
2022/05/26 06:55:34;;;;;;;17.00;2.38;;;;;;;;;;5134145;27;20047;-61
2022/05/26 06:58:01;;;;;;;1.50;0.50;;;;;;;;;;5133378;27;20066;-61
2022/05/26 07:00:27;;;;;;;6.93;1.13;;;;;;;;;;5133164;27;20039;-61
2022/05/26 07:02:54;;;;;;;14.45;1.85;;;;;;;;;;5133696;27;20035;-61
2022/05/26 07:05:20;;;;;;;11.60;1.48;;;;;;;;;;5133632;27;20550;-61
2022/05/26 07:07:47;;;;;;;14.48;1.77;;;;;;;;;;5134068;27;20134;-61
2022/05/26 07:10:13;;;;;;;18.73;2.28;;;;;;;;;;5133003;27;20066;-61
2022/05/26 07:12:40;;;;;;;3.90;0.90;;;;;;;;;;5133175;27;20039;-61
2022/05/26 07:15:08;;;;;;;17.38;2.13;;;;;;;;;;5130586;27;20066;-60
2022/05/26 07:17:36;;;;;;;11.70;1.50;;;;;;;;;;5133684;27;20055;-61
2022/05/26 07:20:03;;;;;;;15.07;1.85;;;;;;;;;;5133110;27;20051;-61
2022/05/26 07:22:30;;;;;;;11.60;1.50;;;;;;;;;;5133621;27;20484;-61
2022/05/26 07:24:58;;;;;;;13.10;1.67;;;;;;;;;;5133104;27;20159;-62
2022/05/26 07:27:24;;;;;;;3.70;0.82;;;;;;;;;;5132218;27;20063;-61
2022/05/26 07:29:52;;;;;;;7.93;1.23;;;;;;;;;;5132768;27;20088;-62
2022/05/26 07:32:20;;;;;;;27.52;3.30;;;;;;;;;;5132816;27;20053;-61
2022/05/26 07:34:46;;;;;;;7.88;1.30;;;;;;;;;;5133742;27;20114;-62
2022/05/26 07:42:43;;;;;;;6.32;1.00;;;;;;;;;;5132164;27;20122;-61
2022/05/26 07:45:10;;;;;;;5.05;1.10;;;;;;;;;;5132102;27;20039;-60
2022/05/26 07:47:37;;;;;;;5.10;1.15;;;;;;;;;;5132709;27;20039;-62
2022/05/26 07:50:04;;;;;;;12.05;1.70;;;;;;;;;;5132960;27;20107;-62
2022/05/26 07:52:31;;;;;;;13.80;3.17;;;;;;;;;;5132928;27;20604;-62
2022/05/26 07:54:58;;;;;;;8.40;1.42;;;;;;;;;;5132444;27;20129;-62
2022/05/26 07:57:25;;;;;;;13.80;1.90;;;;;;;;;;5131775;27;20126;-62
2022/05/26 07:59:53;;;;;;;21.30;2.53;;;;;;;;;;5132401;27;20039;-62
2022/05/26 08:02:20;;;;;;;15.68;2.13;;;;;;;;;;5132343;27;20061;-62
2022/05/26 08:04:47;;;;;;;14.00;1.98;;;;;;;;;;5132847;27;20134;-61
2022/05/26 08:07:14;;;;;;;9.05;1.52;;;;;;;;;;5132295;27;20110;-62
2022/05/26 08:09:40;;;;;;;7.03;1.48;;;;;;;;;;5132198;27;20043;-62
2022/05/26 08:12:11;;;;;;;12.50;2.13;;;;;;;;;;5131645;27;20076;-62
2022/05/26 08:14:38;;;;;;;8.73;1.75;;;;;;;;;;5132020;27;20401;-62
2022/05/26 08:17:05;;;;;;;10.95;2.03;;;;;;;;;;5130639;27;20126;-62
2022/05/26 08:19:32;;;;;;;14.52;2.13;;;;;;;;;;5132408;27;20068;-62
2022/05/26 08:21:58;;;;;;;15.77;2.40;;;;;;;;;;5131586;27;20118;-62
2022/05/26 08:24:26;;;;;;;11.07;1.88;;;;;;;;;;5132111;27;20492;-62
2022/05/26 08:26:52;;;;;;;27.05;3.28;;;;;;;;;;5131445;27;20504;-62
2022/05/26 08:29:18;;;;;;;13.77;2.17;;;;;;;;;;5132086;27;20043;-62
2022/05/26 08:31:45;;;;;;;6.10;1.30;;;;;;;;;;5133014;27;20070;-62
2022/05/26 08:34:12;;;;;;;21.90;4.30;;;;;;;;;;5131233;28;20043;-61
2022/05/26 08:36:39;;;;;;;5.30;1.30;;;;;;;;;;5132054;28;20531;-61
2022/05/26 08:39:06;;;;;;;8.40;1.52;;;;;;;;;;5133790;27;20084;-62
2022/05/26 08:41:36;;;;;;;29.63;3.75;;;;;;;;;;5135667;27;20045;-61
2022/05/26 08:44:03;;;;;;;14.30;2.22;;;;;;;;;;5136204;27;20042;-59
2022/05/26 08:46:44;;;;;;;24.02;3.15;;;;;;;;;;5136417;27;20042;-59
2022/05/26 08:49:14;;;;;;;5.93;1.67;;;;;;;;;;5136155;27;20507;-59
2022/05/26 08:51:44;;;;;;;7.78;0.95;;;;;;;;;;5135846;27;20039;-59
2022/05/26 08:54:15;;;;;;;18.30;2.80;;;;;;;;;;5135784;27;20118;-59
2022/05/26 08:56:42;;;;;;;12.93;2.33;;;;;;;;;;5135497;27;20129;-59
2022/05/26 08:59:11;;;;;;;13.20;2.10;;;;;;;;;;5135823;27;20047;-59
2022/05/26 09:01:38;;;;;;;18.23;2.63;;;;;;;;;;5136166;27;20082;-59
2022/05/26 09:04:04;;;;;;;12.15;1.45;;;;;;;;;;5135549;27;20400;-59
2022/05/26 09:12:55;;;;;;;14.70;1.77;;;;;;;;;;5135589;27;20043;-59
2022/05/26 09:14:54;;;;;;;10.35;1.25;;;;;;;;;;5134552;27;20043;-59
2022/05/26 09:17:22;;;;;;;18.40;1.92;;;;;;;;;;5134523;27;21079;-62
2022/05/26 09:19:50;;;;;;;8.25;1.83;;;;;;;;;;5135974;27;20039;-61
2022/05/26 09:22:22;;;;;;;7.82;0.98;;;;;;;;;;5132454;27;20069;-60
2022/05/26 09:24:49;;;;;;;37.15;4.10;;;;;;;;;;5134682;27;20046;-62
2022/05/26 09:27:34;;;;;;;11.90;1.98;;;;;;;;;;5135040;27;20027;-62
2022/05/26 09:30:21;;;;;;;17.05;2.15;;;;;;;;;;5135051;27;20117;-61
2022/05/26 09:32:48;;;;;;;19.33;2.22;;;;;;;;;;5135168;27;20084;-62
2022/05/26 09:35:21;;;;;;;21.65;2.70;;;;;;;;;;5135323;27;20050;-62
2022/05/26 09:37:48;;;;;;;;;;;;;;;;;;5135997;27;20043;-61
2022/05/26 09:40:19;;;;;;;11.07;1.48;;;;;;;;;;5134479;27;19923;-62
2022/05/26 09:42:48;;;;;;;18.90;1.98;;;;;;;;;;5134627;27;20070;-62
2022/05/26 09:45:16;;;;;;;10.75;1.20;;;;;;;;;;5134655;27;20037;-62
2022/05/26 09:47:43;;;;;;;7.88;1.55;;;;;;;;;;5134750;27;20047;-62
2022/05/26 09:50:14;;;;;;;6.93;0.82;;;;;;;;;;5134489;27;20043;-61
2022/05/26 09:52:44;;;;;;;7.35;0.90;;;;;;;;;;5135296;27;20042;-61
2022/05/26 09:55:16;;;;;;;12.57;1.42;;;;;;;;;;5134720;27;20035;-61
2022/05/26 09:57:43;;;;;;;5.28;0.65;;;;;;;;;;5133932;27;20046;-62
2022/05/26 10:00:14;;;;;;;7.82;0.98;;;;;;;;;;5134639;27;20110;-61
2022/05/26 10:02:41;;;;;;;18.15;1.92;;;;;;;;;;5134439;27;20033;-61
2022/05/26 10:05:28;;;;;;;11.77;1.38;;;;;;;;;;5135168;27;20134;-62
2022/05/26 10:08:12;;;;;;;12.27;1.40;;;;;;;;;;5134906;27;20043;-61
2022/05/26 10:10:59;;;;;;;10.18;1.13;;;;;;;;;;5134224;27;20534;-62
2022/05/26 10:13:48;;;;;;;16.45;1.77;;;;;;;;;;5134168;27;20061;-61
2022/05/26 10:16:14;;;;;;;12.13;1.30;;;;;;;;;;5134180;27;20050;-62
2022/05/26 10:18:50;;;;;;;7.97;0.85;;;;;;;;;;5134032;27;20492;-62
2022/05/26 10:21:19;;;;;;;24.92;2.53;;;;;;;;;;5132810;27;20090;-61
2022/05/26 10:23:48;;;;;;;22.80;3.58;;;;;;;;;;5133676;27;20065;-61
2022/05/26 10:26:21;;;;;;;14.65;1.55;;;;;;;;;;5133754;27;20074;-62
2022/05/26 10:29:10;;;;;;;21.15;2.22;;;;;;;;;;5134596;27;20039;-61
2022/05/26 10:31:49;;;;;;;9.15;1.13;;;;;;;;;;5133814;27;20039;-62
2022/05/26 10:34:28;;;;;;;13.13;1.42;;;;;;;;;;5134150;27;20043;-62
2022/05/26 10:36:57;;;;;;;6.22;0.75;;;;;;;;;;5133787;27;20062;-61
2022/05/26 10:39:42;;;;;;;17.45;1.83;;;;;;;;;;5133198;27;20088;-62
2022/05/26 10:42:26;;;;;;;10.13;1.60;;;;;;;;;;5132101;27;20070;-62
2022/05/26 10:45:00;;;;;;;7.70;0.93;;;;;;;;;;5133564;27;20536;-61
2022/05/26 10:47:30;;;;;;;23.83;2.47;;;;;;;;;;5133423;27;20035;-61
2022/05/26 10:50:07;;;;;;;17.13;1.75;;;;;;;;;;5134187;27;20042;-62
2022/05/26 10:52:39;;;;;;;8.10;0.95;;;;;;;;;;5133428;27;20131;-61
2022/05/26 10:55:08;;;;;;;21.50;2.22;;;;;;;;;;5133430;27;20067;-61
2022/05/26 10:57:46;;;;;;;7.85;0.85;;;;;;;;;;5132777;27;20057;-61
2022/05/26 11:00:13;;;;;;;6.95;0.85;;;;;;;;;;5133170;27;20031;-62
2022/05/26 11:03:00;;;;;;;23.40;2.42;;;;;;;;;;5132278;27;20107;-61
2022/05/26 11:05:32;;;;;;;9.95;1.08;;;;;;;;;;5102660;27;20047;-61
2022/05/26 11:07:59;;;;;;;5.82;0.85;;;;;;;;;;5133797;27;20511;-62
2022/05/26 11:10:30;;;;;;;9.00;1.02;;;;;;;;;;5132858;27;20039;-60
2022/05/26 11:13:01;;;;;;;16.40;1.67;;;;;;;;;;5132705;27;20075;-60
2022/05/26 11:18:26;;;;;;;15.25;1.58;;;;;;;;;;5133172;27;20067;-60
2022/05/26 11:20:54;;;;;;;14.70;1.55;;;;;;;;;;5132417;27;20177;-60
2022/05/26 11:23:21;;;;;;;20.52;2.08;;;;;;;;;;5132777;27;20045;-60
2022/05/26 11:25:48;;;;;;;18.60;2.00;;;;;;;;;;5133516;27;20042;-60
2022/05/26 11:28:40;;;;;;;15.00;1.60;;;;;;;;;;5132752;27;20139;-60
2022/05/26 11:36:43;;;;;;;10.15;1.23;;;;;;;;;;5132436;27;20095;-61
2022/05/26 11:39:17;;;;;;;23.45;2.40;;;;;;;;;;5131874;27;20096;-60
2022/05/26 11:41:52;;;;;;;18.25;1.95;;;;;;;;;;5132893;27;20046;-60
2022/05/26 11:44:57;;;;;;;16.23;1.77;;;;;;;;;;5132586;27;20066;-60
2022/05/26 11:47:26;;;;;;;17.52;1.95;;;;;;;;;;5085374;28;20576;-60
2022/05/26 11:49:53;;;;;;;39.38;4.03;;;;;;;;;;5089384;28;20486;-60
2022/05/26 11:52:45;;;;;;;12.68;1.30;;;;;;;;;;5068924;28;20070;-59
2022/05/26 11:55:15;;;;;;;7.75;0.88;;;;;;;;;;5085131;28;20074;-59
2022/05/26 11:57:41;;;;;;;5.72;0.70;;;;;;;;;;5084609;28;20123;-60
2022/05/26 12:00:18;;;;;;;17.25;3.10;;;;;;;;;;5084757;28;20083;-59
2022/05/26 12:03:14;;;;;;;6.70;0.82;;;;;;;;;;5085354;28;20093;-59
2022/05/26 12:05:41;;;;;;;10.60;1.15;;;;;;;;;;5084844;28;20572;-59
2022/05/26 12:08:23;;;;;;;16.33;1.77;;;;;;;;;;5088665;28;20123;-60
2022/05/26 12:10:54;;;;;;;24.25;2.58;;;;;;;;;;5087866;28;20050;-59
2022/05/26 12:13:23;;;;;;;14.32;1.48;;;;;;;;;;5084375;28;20044;-59
2022/05/26 12:16:09;;;;;;;10.00;1.15;;;;;;;;;;5084600;28;20102;-59
2022/05/26 12:18:47;;;;;;;8.95;1.08;;;;;;;;;;5116691;27;20081;-59
2022/05/26 12:21:33;;;;;;;7.60;0.88;;;;;;;;;;5121363;27;20118;-59
2022/05/26 12:24:22;;;;;;;3.80;0.52;;;;;;;;;;5132241;27;20047;-59
2022/05/26 12:26:48;;;;;;;7.95;0.90;;;;;;;;;;5131824;27;20421;-59
2022/05/26 12:29:41;;;;;;;19.95;2.10;;;;;;;;;;5132375;27;20035;-59
2022/05/26 12:32:17;;;;;;;14.80;1.65;;;;;;;;;;5128914;27;20047;-60
2022/05/26 12:34:47;;;;;;;18.05;1.85;;;;;;;;;;5130235;27;20443;-59
2022/05/26 12:37:28;;;;;;;13.73;1.52;;;;;;;;;;5132305;27;20039;-60
2022/05/26 12:40:04;;;;;;;9.15;1.00;;;;;;;;;;5131610;27;20039;-59
2022/05/26 12:42:49;;;;;;;6.93;0.80;;;;;;;;;;5131472;27;20046;-60
2022/05/26 12:45:20;;;;;;;7.80;1.05;;;;;;;;;;5131454;28;20035;-59
2022/05/26 12:47:58;;;;;;;8.65;0.95;;;;;;;;;;5131825;27;20111;-60
2022/05/26 12:50:25;;;;;;;13.77;1.40;;;;;;;;;;5131697;28;20503;-60
2022/05/26 12:52:54;;;;;;;20.60;2.13;;;;;;;;;;5132195;28;20039;-60
2022/05/26 12:55:33;;;;;;;9.90;1.10;;;;;;;;;;5130322;27;20104;-60
2022/05/26 12:58:09;;;;;;;10.02;1.08;;;;;;;;;;5131229;28;20063;-60
2022/05/26 13:00:42;;;;;;;12.95;1.33;;;;;;;;;;5123788;27;20114;-60
2022/05/26 13:03:18;;;;;;;8.50;0.93;;;;;;;;;;5128130;27;20041;-61
2022/05/26 13:05:47;;;;;;;11.52;1.30;;;;;;;;;;5122015;28;20037;-60
2022/05/26 13:08:19;;;;;;;17.63;1.80;;;;;;;;;;5122036;28;20036;-61
2022/05/26 13:10:46;;;;;;;26.13;2.63;;;;;;;;;;5119078;27;20052;-61
2022/05/26 13:13:16;;;;;;;3.10;0.45;;;;;;;;;;5129375;28;20035;-60
2022/05/26 13:15:42;;;;;;;3.78;0.65;;;;;;;;;;5131382;27;20035;-61
2022/05/26 13:18:35;;;;;;;15.93;1.58;;;;;;;;;;5131029;27;20454;-60
2022/05/26 13:21:13;;;;;;;2.58;0.47;;;;;;;;;;5117509;28;20548;-61
2022/05/26 13:23:40;;;;;;;10.75;1.13;;;;;;;;;;5131459;27;20062;-60
2022/05/26 13:26:06;;;;;;;7.88;1.05;;;;;;;;;;5134961;27;20039;-61
2022/05/26 13:28:34;;;;;;;16.75;1.70;;;;;;;;;;5134624;27;20047;-61
2022/05/26 13:34:07;;;;;;;12.00;1.25;;;;;;;;;;5135348;27;20126;-60
2022/05/26 13:36:35;;;;;;;9.32;1.00;;;;;;;;;;5135226;27;20084;-61
2022/05/26 13:39:06;;;;;;;23.10;2.38;;;;;;;;;;5134802;27;20031;-61
2022/05/26 13:41:39;;;;;;;7.47;0.80;;;;;;;;;;5134559;27;20096;-60
2022/05/26 13:44:07;;;;;;;8.32;0.93;;;;;;;;;;5134229;27;20498;-60
2022/05/26 13:46:35;;;;;;;17.70;1.85;;;;;;;;;;5134875;27;20135;-60
2022/05/26 13:49:16;;;;;;;5.28;0.68;;;;;;;;;;5134907;27;20374;-60
2022/05/26 13:51:44;;;;;;;19.90;2.05;;;;;;;;;;5134712;27;20051;-60
2022/05/26 13:54:23;;;;;;;7.72;0.93;;;;;;;;;;5134545;27;20110;-61
2022/05/26 13:56:49;;;;;;;12.27;1.27;;;;;;;;;;5134629;27;20043;-61
2022/05/26 13:59:16;;;;;;;19.00;2.10;;;;;;;;;;5134777;27;20065;-60
2022/05/26 14:02:06;;;;;;;6.50;0.77;;;;;;;;;;5135204;27;20519;-60
2022/05/26 14:04:39;;;;;;;10.80;1.15;;;;;;;;;;5127531;27;20054;-60
2022/05/26 14:07:32;;;;;;;17.58;1.75;;;;;;;;;;5134639;27;20557;-60
2022/05/26 14:10:04;;;;;;;15.77;1.58;;;;;;;;;;5132436;27;20086;-60
2022/05/26 14:12:31;;;;;;;22.47;2.27;;;;;;;;;;5133876;27;20035;-60
2022/05/26 14:14:57;;;;;;;55.28;5.32;;;;;;;;;;5133938;27;20031;-60
2022/05/26 14:17:24;;;;;;;12.63;1.45;;;;;;;;;;5134155;27;20096;-60
2022/05/26 14:19:50;;;;;;;7.70;0.80;;;;;;;;;;5134764;27;20046;-60
2022/05/26 14:22:22;;;;;;;21.00;3.10;;;;;;;;;;5133814;27;20039;-61
2022/05/26 14:24:49;;;;;;;16.30;1.58;;;;;;;;;;5134107;27;20049;-60
2022/05/26 14:27:20;;;;;;;23.73;2.45;;;;;;;;;;5133813;27;20545;-60
2022/05/26 14:30:10;;;;;;;8.40;0.93;;;;;;;;;;5134182;27;20120;-60
2022/05/26 14:32:38;;;;;;;23.75;2.35;;;;;;;;;;5123346;27;20603;-60
2022/05/26 14:35:15;;;;;;;9.27;1.02;;;;;;;;;;5134873;27;20126;-60
2022/05/26 14:37:44;;;;;;;6.82;0.80;;;;;;;;;;5133022;27;20126;-60
2022/05/26 14:40:11;;;;;;;20.60;2.03;;;;;;;;;;5133777;27;20096;-60
2022/05/26 14:42:42;;;;;;;20.27;1.95;;;;;;;;;;5133514;27;20479;-60
2022/05/26 14:45:14;;;;;;;6.43;0.77;;;;;;;;;;5133843;27;20496;-60
2022/05/26 14:47:40;;;;;;;8.98;0.93;;;;;;;;;;5133868;27;20050;-60
2022/05/26 14:50:08;;;;;;;16.48;1.73;;;;;;;;;;5133929;27;20444;-60
2022/05/26 14:52:35;;;;;;;12.70;1.33;;;;;;;;;;5134053;27;20043;-59
2022/05/26 14:57:47;;;;;;;10.25;1.13;;;;;;;;;;5133486;27;20116;-60
2022/05/26 15:00:17;;;;;;;16.92;1.80;;;;;;;;;;5133154;27;20123;-60
2022/05/26 15:02:44;;;;;;;16.42;1.73;;;;;;;;;;5133479;27;20063;-60
2022/05/26 15:05:11;;;;;;;26.20;2.55;;;;;;;;;;5133891;27;20447;-60
2022/05/26 15:07:38;;;;;;;9.18;1.00;;;;;;;;;;5134094;27;20043;-60
2022/05/26 15:10:06;;;;;;;21.77;2.30;;;;;;;;;;5133265;27;20041;-59
2022/05/26 15:12:34;;;;;;;22.25;2.17;;;;;;;;;;5132695;27;20126;-60
2022/05/26 15:15:01;;;;;;;12.57;1.30;;;;;;;;;;5132746;27;20114;-61
2022/05/26 15:17:28;;;;;;;9.80;1.75;;;;;;;;;;5133340;27;20035;-61
2022/05/26 15:19:58;;;;;;;15.07;1.60;;;;;;;;;;5133988;27;20118;-60
2022/05/26 15:22:25;;;;;;;8.35;0.93;;;;;;;;;;5133081;27;20071;-60
2022/05/26 15:24:52;;;;;;;15.27;1.63;;;;;;;;;;5133031;27;20454;-61
2022/05/26 15:27:22;;;;;;;21.65;2.10;;;;;;;;;;5132502;27;20452;-60
2022/05/26 15:29:48;;;;;;;12.57;1.27;;;;;;;;;;5133012;27;20035;-60
2022/05/26 15:32:29;;;;;;;23.50;2.30;;;;;;;;;;5133068;27;20047;-61
2022/05/26 15:34:56;;;;;;;8.95;1.00;;;;;;;;;;5132751;27;20135;-60
2022/05/26 15:37:22;;;;;;;9.25;1.02;;;;;;;;;;5121717;22;20541;-60
2022/05/26 15:39:51;;;;;;;4.05;0.52;;;;;;;;;;5081786;28;20044;-59
2022/05/26 15:42:17;;;;;;;12.20;1.20;;;;;;;;;;5075257;28;20545;-61